sensor_id;sensor_type;location;lat;lon;timestamp;pressure;altitude;pressure_sealevel;temperature
21336;BMP180;69435;52.670;13.544;2024-03-23T00:54:36;100126.00;;;12.30
21336;BMP180;69435;52.670;13.544;2024-03-23T00:57:22;100123.00;;;12.30
21336;BMP180;69435;52.670;13.544;2024-03-23T01:00:08;100117.00;;;12.30
21336;BMP180;69435;52.670;13.544;2024-03-23T01:02:56;100126.00;;;12.30
21336;BMP180;69435;52.670;13.544;2024-03-23T01:05:42;100109.00;;;12.40
21336;BMP180;69435;52.670;13.544;2024-03-23T01:08:28;100114.00;;;12.40
21336;BMP180;69435;52.670;13.544;2024-03-23T01:11:14;100118.00;;;12.40
21336;BMP180;69435;52.670;13.544;2024-03-23T01:14:00;100101.00;;;12.40
21336;BMP180;69435;52.670;13.544;2024-03-23T01:16:46;100098.00;;;12.40
21336;BMP180;69435;52.670;13.544;2024-03-23T01:19:31;100096.00;;;12.40
21336;BMP180;69435;52.670;13.544;2024-03-23T01:22:18;100101.00;;;12.40
21336;BMP180;69435;52.670;13.544;2024-03-23T01:25:04;100097.00;;;12.40
21336;BMP180;69435;52.670;13.544;2024-03-23T01:27:50;100093.00;;;12.50
21336;BMP180;69435;52.670;13.544;2024-03-23T01:30:36;100089.00;;;12.50
21336;BMP180;69435;52.670;13.544;2024-03-23T01:33:22;100089.00;;;12.50
21336;BMP180;69435;52.670;13.544;2024-03-23T01:36:08;100090.00;;;12.50
21336;BMP180;69435;52.670;13.544;2024-03-23T01:38:54;100084.00;;;12.50
21336;BMP180;69435;52.670;13.544;2024-03-23T01:41:40;100075.00;;;12.50
21336;BMP180;69435;52.670;13.544;2024-03-23T01:44:28;100058.00;;;12.50
21336;BMP180;69435;52.670;13.544;2024-03-23T01:47:14;100052.00;;;12.50
21336;BMP180;69435;52.670;13.544;2024-03-23T01:50:01;100050.00;;;12.50
21336;BMP180;69435;52.670;13.544;2024-03-23T01:52:48;100050.00;;;12.50
21336;BMP180;69435;52.670;13.544;2024-03-23T01:55:34;100048.00;;;12.50
21336;BMP180;69435;52.670;13.544;2024-03-23T01:58:20;100035.00;;;12.60
21336;BMP180;69435;52.670;13.544;2024-03-23T02:01:06;100015.00;;;12.60
21336;BMP180;69435;52.670;13.544;2024-03-23T02:03:52;100021.00;;;12.60
21336;BMP180;69435;52.670;13.544;2024-03-23T02:06:38;100022.00;;;12.60
21336;BMP180;69435;52.670;13.544;2024-03-23T02:09:24;100027.00;;;12.60
21336;BMP180;69435;52.670;13.544;2024-03-23T02:12:10;100006.00;;;12.60
21336;BMP180;69435;52.670;13.544;2024-03-23T02:14:56;100015.00;;;12.60
21336;BMP180;69435;52.670;13.544;2024-03-23T02:17:42;100015.00;;;12.60
21336;BMP180;69435;52.670;13.544;2024-03-23T02:20:28;100024.00;;;12.50
21336;BMP180;69435;52.670;13.544;2024-03-23T02:23:16;100004.00;;;12.30
21336;BMP180;69435;52.670;13.544;2024-03-23T02:26:02;100034.00;;;12.50
21336;BMP180;69435;52.670;13.544;2024-03-23T02:28:48;100022.00;;;12.40
21336;BMP180;69435;52.670;13.544;2024-03-23T02:31:35;100004.00;;;12.40
21336;BMP180;69435;52.670;13.544;2024-03-23T02:34:21;100002.00;;;12.30
21336;BMP180;69435;52.670;13.544;2024-03-23T02:37:11;100000.00;;;12.40
21336;BMP180;69435;52.670;13.544;2024-03-23T02:39:58;100006.00;;;12.30
21336;BMP180;69435;52.670;13.544;2024-03-23T02:42:44;99993.00;;;12.30
21336;BMP180;69435;52.670;13.544;2024-03-23T02:45:30;99988.00;;;12.30
21336;BMP180;69435;52.670;13.544;2024-03-23T02:48:16;99983.00;;;12.30
21336;BMP180;69435;52.670;13.544;2024-03-23T02:51:02;99973.00;;;12.30
21336;BMP180;69435;52.670;13.544;2024-03-23T02:53:48;99972.00;;;12.20
21336;BMP180;69435;52.670;13.544;2024-03-23T02:56:34;99968.00;;;12.30
21336;BMP180;69435;52.670;13.544;2024-03-23T02:59:21;99963.00;;;12.30
21336;BMP180;69435;52.670;13.544;2024-03-23T03:02:07;99968.00;;;12.30
21336;BMP180;69435;52.670;13.544;2024-03-23T03:04:53;99965.00;;;12.30
21336;BMP180;69435;52.670;13.544;2024-03-23T03:07:39;99969.00;;;12.20
21336;BMP180;69435;52.670;13.544;2024-03-23T03:10:26;99969.00;;;12.20
21336;BMP180;69435;52.670;13.544;2024-03-23T03:13:12;99969.00;;;12.10
21336;BMP180;69435;52.670;13.544;2024-03-23T03:15:58;99962.00;;;12.10
21336;BMP180;69435;52.670;13.544;2024-03-23T03:18:44;99962.00;;;12.10
21336;BMP180;69435;52.670;13.544;2024-03-23T03:21:32;99958.00;;;12.10
21336;BMP180;69435;52.670;13.544;2024-03-23T03:24:19;99954.00;;;12.10
21336;BMP180;69435;52.670;13.544;2024-03-23T03:27:05;99961.00;;;12.10
21336;BMP180;69435;52.670;13.544;2024-03-23T03:29:52;99949.00;;;12.00
21336;BMP180;69435;52.670;13.544;2024-03-23T03:32:38;99949.00;;;12.00
21336;BMP180;69435;52.670;13.544;2024-03-23T03:35:24;99940.00;;;12.00
21336;BMP180;69435;52.670;13.544;2024-03-23T03:38:10;99932.00;;;12.00
21336;BMP180;69435;52.670;13.544;2024-03-23T03:40:56;99916.00;;;12.10
21336;BMP180;69435;52.670;13.544;2024-03-23T03:43:43;99937.00;;;12.10
21336;BMP180;69435;52.670;13.544;2024-03-23T03:46:29;99938.00;;;12.10
21336;BMP180;69435;52.670;13.544;2024-03-23T03:49:15;99936.00;;;12.10
21336;BMP180;69435;52.670;13.544;2024-03-23T03:52:01;99940.00;;;12.10
21336;BMP180;69435;52.670;13.544;2024-03-23T03:54:47;99926.00;;;12.10
21336;BMP180;69435;52.670;13.544;2024-03-23T03:57:33;99932.00;;;12.00
21336;BMP180;69435;52.670;13.544;2024-03-23T04:00:19;99924.00;;;12.00
21336;BMP180;69435;52.670;13.544;2024-03-23T04:03:05;99923.00;;;11.90
21336;BMP180;69435;52.670;13.544;2024-03-23T04:05:55;99918.00;;;11.90
21336;BMP180;69435;52.670;13.544;2024-03-23T04:08:41;99914.00;;;11.90
21336;BMP180;69435;52.670;13.544;2024-03-23T04:11:27;99916.00;;;11.70
21336;BMP180;69435;52.670;13.544;2024-03-23T04:14:13;99915.00;;;11.90
21336;BMP180;69435;52.670;13.544;2024-03-23T04:16:59;99897.00;;;11.90
21336;BMP180;69435;52.670;13.544;2024-03-23T04:19:45;99914.00;;;11.90
21336;BMP180;69435;52.670;13.544;2024-03-23T04:22:31;99919.00;;;11.90
21336;BMP180;69435;52.670;13.544;2024-03-23T04:25:17;99918.00;;;11.90
21336;BMP180;69435;52.670;13.544;2024-03-23T04:28:05;99907.00;;;11.80
21336;BMP180;69435;52.670;13.544;2024-03-23T04:30:51;99918.00;;;11.70
21336;BMP180;69435;52.670;13.544;2024-03-23T04:33:37;99902.00;;;11.70
21336;BMP180;69435;52.670;13.544;2024-03-23T04:36:23;99901.00;;;11.70
21336;BMP180;69435;52.670;13.544;2024-03-23T04:39:09;99894.00;;;11.60
21336;BMP180;69435;52.670;13.544;2024-03-23T04:41:55;99894.00;;;11.60
21336;BMP180;69435;52.670;13.544;2024-03-23T04:44:41;99878.00;;;11.60
21336;BMP180;69435;52.670;13.544;2024-03-23T04:47:28;99862.00;;;11.60
21336;BMP180;69435;52.670;13.544;2024-03-23T04:50:14;99881.00;;;11.50
21336;BMP180;69435;52.670;13.544;2024-03-23T04:52:59;99875.00;;;11.50
21336;BMP180;69435;52.670;13.544;2024-03-23T04:55:45;99879.00;;;11.50
21336;BMP180;69435;52.670;13.544;2024-03-23T04:58:31;99876.00;;;11.50
21336;BMP180;69435;52.670;13.544;2024-03-23T05:01:18;99871.00;;;11.50
21336;BMP180;69435;52.670;13.544;2024-03-23T05:04:04;99864.00;;;11.50
21336;BMP180;69435;52.670;13.544;2024-03-23T05:06:50;99857.00;;;11.50
21336;BMP180;69435;52.670;13.544;2024-03-23T05:09:37;99853.00;;;11.50
21336;BMP180;69435;52.670;13.544;2024-03-23T05:12:22;99846.00;;;11.50
21336;BMP180;69435;52.670;13.544;2024-03-23T05:15:09;99822.00;;;11.50
21336;BMP180;69435;52.670;13.544;2024-03-23T05:17:55;99849.00;;;11.50
21336;BMP180;69435;52.670;13.544;2024-03-23T05:20:41;99843.00;;;11.50
21336;BMP180;69435;52.670;13.544;2024-03-23T05:23:29;99846.00;;;11.50
21336;BMP180;69435;52.670;13.544;2024-03-23T05:26:15;99840.00;;;11.60
21336;BMP180;69435;52.670;13.544;2024-03-23T05:29:01;99830.00;;;11.50
21336;BMP180;69435;52.670;13.544;2024-03-23T05:31:51;99826.00;;;11.60
21336;BMP180;69435;52.670;13.544;2024-03-23T05:34:37;99842.00;;;11.50
21336;BMP180;69435;52.670;13.544;2024-03-23T05:37:23;99838.00;;;11.50
21336;BMP180;69435;52.670;13.544;2024-03-23T05:40:10;99843.00;;;11.50
21336;BMP180;69435;52.670;13.544;2024-03-23T05:42:58;99844.00;;;11.40
21336;BMP180;69435;52.670;13.544;2024-03-23T05:45:44;99835.00;;;11.30
21336;BMP180;69435;52.670;13.544;2024-03-23T05:48:30;99835.00;;;11.30
21336;BMP180;69435;52.670;13.544;2024-03-23T05:51:16;99836.00;;;11.30
21336;BMP180;69435;52.670;13.544;2024-03-23T05:54:03;99824.00;;;11.30
21336;BMP180;69435;52.670;13.544;2024-03-23T05:56:49;99826.00;;;11.20
21336;BMP180;69435;52.670;13.544;2024-03-23T05:59:35;99820.00;;;11.20
21336;BMP180;69435;52.670;13.544;2024-03-23T06:02:21;99811.00;;;11.20
21336;BMP180;69435;52.670;13.544;2024-03-23T06:05:07;99805.00;;;11.20
21336;BMP180;69435;52.670;13.544;2024-03-23T06:07:53;99804.00;;;11.30
21336;BMP180;69435;52.670;13.544;2024-03-23T06:10:39;99808.00;;;11.30
21336;BMP180;69435;52.670;13.544;2024-03-23T06:13:25;99807.00;;;11.30
21336;BMP180;69435;52.670;13.544;2024-03-23T06:16:15;99796.00;;;11.30
21336;BMP180;69435;52.670;13.544;2024-03-23T06:19:01;99787.00;;;11.30
21336;BMP180;69435;52.670;13.544;2024-03-23T06:21:50;99786.00;;;11.30
21336;BMP180;69435;52.670;13.544;2024-03-23T06:24:36;99787.00;;;11.30
21336;BMP180;69435;52.670;13.544;2024-03-23T06:27:22;99780.00;;;11.40
21336;BMP180;69435;52.670;13.544;2024-03-23T06:30:08;99769.00;;;11.40
21336;BMP180;69435;52.670;13.544;2024-03-23T06:32:55;99775.00;;;11.50
21336;BMP180;69435;52.670;13.544;2024-03-23T06:35:40;99779.00;;;11.40
21336;BMP180;69435;52.670;13.544;2024-03-23T06:38:27;99773.00;;;11.60
21336;BMP180;69435;52.670;13.544;2024-03-23T06:41:13;99773.00;;;11.70
21336;BMP180;69435;52.670;13.544;2024-03-23T06:43:59;99770.00;;;11.70
21336;BMP180;69435;52.670;13.544;2024-03-23T06:46:45;99776.00;;;11.80
21336;BMP180;69435;52.670;13.544;2024-03-23T06:49:31;99770.00;;;11.90
21336;BMP180;69435;52.670;13.544;2024-03-23T06:52:17;99763.00;;;11.90
21336;BMP180;69435;52.670;13.544;2024-03-23T06:55:03;99749.00;;;11.90
21336;BMP180;69435;52.670;13.544;2024-03-23T06:57:51;99758.00;;;11.90
21336;BMP180;69435;52.670;13.544;2024-03-23T07:00:37;99758.00;;;11.90
21336;BMP180;69435;52.670;13.544;2024-03-23T07:03:23;99745.00;;;12.00
21336;BMP180;69435;52.670;13.544;2024-03-23T07:06:10;99741.00;;;12.00
21336;BMP180;69435;52.670;13.544;2024-03-23T07:08:56;99740.00;;;12.10
21336;BMP180;69435;52.670;13.544;2024-03-23T07:11:42;99732.00;;;12.10
21336;BMP180;69435;52.670;13.544;2024-03-23T07:14:28;99739.00;;;12.10
21336;BMP180;69435;52.670;13.544;2024-03-23T07:17:14;99736.00;;;12.10
21336;BMP180;69435;52.670;13.544;2024-03-23T07:20:01;99722.00;;;12.10
21336;BMP180;69435;52.670;13.544;2024-03-23T07:22:49;99733.00;;;11.90
21336;BMP180;69435;52.670;13.544;2024-03-23T07:25:35;99730.00;;;11.80
21336;BMP180;69435;52.670;13.544;2024-03-23T07:28:21;99738.00;;;11.70
21336;BMP180;69435;52.670;13.544;2024-03-23T07:31:12;99733.00;;;11.60
21336;BMP180;69435;52.670;13.544;2024-03-23T07:33:59;99744.00;;;11.60
21336;BMP180;69435;52.670;13.544;2024-03-23T07:36:45;99733.00;;;11.60
21336;BMP180;69435;52.670;13.544;2024-03-23T07:39:31;99732.00;;;11.60
21336;BMP180;69435;52.670;13.544;2024-03-23T07:42:18;99724.00;;;11.60
21336;BMP180;69435;52.670;13.544;2024-03-23T07:45:05;99724.00;;;11.50
21336;BMP180;69435;52.670;13.544;2024-03-23T07:47:51;99728.00;;;11.50
21336;BMP180;69435;52.670;13.544;2024-03-23T07:50:37;99727.00;;;11.40
21336;BMP180;69435;52.670;13.544;2024-03-23T07:53:23;99735.00;;;11.30
21336;BMP180;69435;52.670;13.544;2024-03-23T07:56:10;99723.00;;;11.40
21336;BMP180;69435;52.670;13.544;2024-03-23T07:58:56;99722.00;;;11.30
21336;BMP180;69435;52.670;13.544;2024-03-23T08:01:42;99711.00;;;11.30
21336;BMP180;69435;52.670;13.544;2024-03-23T08:04:28;99709.00;;;11.40
21336;BMP180;69435;52.670;13.544;2024-03-23T08:07:14;99715.00;;;11.30
21336;BMP180;69435;52.670;13.544;2024-03-23T08:10:00;99720.00;;;11.30
21336;BMP180;69435;52.670;13.544;2024-03-23T08:12:47;99707.00;;;11.20
21336;BMP180;69435;52.670;13.544;2024-03-23T08:15:32;99716.00;;;11.20
21336;BMP180;69435;52.670;13.544;2024-03-23T08:18:18;99713.00;;;11.20
21336;BMP180;69435;52.670;13.544;2024-03-23T08:21:06;99708.00;;;11.10
21336;BMP180;69435;52.670;13.544;2024-03-23T08:23:52;99698.00;;;11.10
21336;BMP180;69435;52.670;13.544;2024-03-23T08:26:38;99705.00;;;11.00
21336;BMP180;69435;52.670;13.544;2024-03-23T08:29:25;99712.00;;;10.90
21336;BMP180;69435;52.670;13.544;2024-03-23T08:32:11;99719.00;;;10.90
21336;BMP180;69435;52.670;13.544;2024-03-23T08:34:58;99700.00;;;10.80
21336;BMP180;69435;52.670;13.544;2024-03-23T08:37:44;99695.00;;;10.80
21336;BMP180;69435;52.670;13.544;2024-03-23T08:40:30;99691.00;;;10.70
21336;BMP180;69435;52.670;13.544;2024-03-23T08:43:16;99691.00;;;10.70
21336;BMP180;69435;52.670;13.544;2024-03-23T08:46:16;99688.00;;;10.70
21336;BMP180;69435;52.670;13.544;2024-03-23T08:49:02;99687.00;;;10.60
21336;BMP180;69435;52.670;13.544;2024-03-23T08:51:48;99688.00;;;10.60
21336;BMP180;69435;52.670;13.544;2024-03-23T08:54:34;99682.00;;;10.60
21336;BMP180;69435;52.670;13.544;2024-03-23T08:57:20;99692.00;;;10.60
21336;BMP180;69435;52.670;13.544;2024-03-23T09:00:06;99691.00;;;10.50
21336;BMP180;69435;52.670;13.544;2024-03-23T09:02:54;99702.00;;;10.50
21336;BMP180;69435;52.670;13.544;2024-03-23T09:05:41;99697.00;;;10.40
21336;BMP180;69435;52.670;13.544;2024-03-23T09:08:27;99706.00;;;10.40
21336;BMP180;69435;52.670;13.544;2024-03-23T09:11:13;99708.00;;;10.30
21336;BMP180;69435;52.670;13.544;2024-03-23T09:14:00;99693.00;;;10.20
21336;BMP180;69435;52.670;13.544;2024-03-23T09:16:46;99707.00;;;10.20
21336;BMP180;69435;52.670;13.544;2024-03-23T09:19:32;99694.00;;;10.10
21336;BMP180;69435;52.670;13.544;2024-03-23T09:22:18;99694.00;;;10.20
21336;BMP180;69435;52.670;13.544;2024-03-23T09:25:04;99690.00;;;10.20
21336;BMP180;69435;52.670;13.544;2024-03-23T09:27:51;99709.00;;;10.30
21336;BMP180;69435;52.670;13.544;2024-03-23T09:30:37;99716.00;;;10.30
21336;BMP180;69435;52.670;13.544;2024-03-23T09:33:29;99707.00;;;10.30
21336;BMP180;69435;52.670;13.544;2024-03-23T09:36:15;99710.00;;;10.30
21336;BMP180;69435;52.670;13.544;2024-03-23T09:39:01;99705.00;;;10.30
21336;BMP180;69435;52.670;13.544;2024-03-23T09:41:47;99695.00;;;10.20
21336;BMP180;69435;52.670;13.544;2024-03-23T09:44:35;99714.00;;;10.00
21336;BMP180;69435;52.670;13.544;2024-03-23T09:47:21;99708.00;;;10.00
21336;BMP180;69435;52.670;13.544;2024-03-23T09:50:08;99702.00;;;10.00
21336;BMP180;69435;52.670;13.544;2024-03-23T09:52:55;99708.00;;;9.90
21336;BMP180;69435;52.670;13.544;2024-03-23T09:55:43;99708.00;;;9.90
21336;BMP180;69435;52.670;13.544;2024-03-23T09:58:30;99703.00;;;10.00
21336;BMP180;69435;52.670;13.544;2024-03-23T10:01:18;99701.00;;;10.00
21336;BMP180;69435;52.670;13.544;2024-03-23T10:04:04;99718.00;;;10.00
21336;BMP180;69435;52.670;13.544;2024-03-23T10:06:50;99735.00;;;10.00
21336;BMP180;69435;52.670;13.544;2024-03-23T10:09:37;99730.00;;;9.90
21336;BMP180;69435;52.670;13.544;2024-03-23T10:12:24;99730.00;;;9.90
21336;BMP180;69435;52.670;13.544;2024-03-23T10:15:19;99740.00;;;10.00
21336;BMP180;69435;52.670;13.544;2024-03-23T10:18:19;99743.00;;;9.90
21336;BMP180;69435;52.670;13.544;2024-03-23T10:23:52;99755.00;;;9.90
21336;BMP180;69435;52.670;13.544;2024-03-23T10:26:38;99752.00;;;9.90
21336;BMP180;69435;52.670;13.544;2024-03-23T10:29:25;99763.00;;;10.00
21336;BMP180;69435;52.670;13.544;2024-03-23T10:32:17;99763.00;;;10.00
21336;BMP180;69435;52.670;13.544;2024-03-23T10:35:20;99755.00;;;10.10
21336;BMP180;69435;52.670;13.544;2024-03-23T10:38:09;99756.00;;;10.10
21336;BMP180;69435;52.670;13.544;2024-03-23T10:40:56;99755.00;;;10.10
21336;BMP180;69435;52.670;13.544;2024-03-23T10:43:46;99757.00;;;10.20
21336;BMP180;69435;52.670;13.544;2024-03-23T10:46:32;99763.00;;;10.20
21336;BMP180;69435;52.670;13.544;2024-03-23T10:49:18;99768.00;;;10.20
21336;BMP180;69435;52.670;13.544;2024-03-23T10:52:05;99776.00;;;10.20
21336;BMP180;69435;52.670;13.544;2024-03-23T10:54:51;99762.00;;;10.20
21336;BMP180;69435;52.670;13.544;2024-03-23T10:57:45;99759.00;;;10.20
21336;BMP180;69435;52.670;13.544;2024-03-23T11:00:33;99759.00;;;10.20
21336;BMP180;69435;52.670;13.544;2024-03-23T11:03:37;99767.00;;;10.20
21336;BMP180;69435;52.670;13.544;2024-03-23T11:06:37;99771.00;;;10.10
21336;BMP180;69435;52.670;13.544;2024-03-23T11:09:39;99765.00;;;10.10
21336;BMP180;69435;52.670;13.544;2024-03-23T11:12:27;99771.00;;;10.10
21336;BMP180;69435;52.670;13.544;2024-03-23T11:15:13;99752.00;;;10.10
21336;BMP180;69435;52.670;13.544;2024-03-23T11:18:07;99778.00;;;10.10
21336;BMP180;69435;52.670;13.544;2024-03-23T11:20:54;99783.00;;;10.10
21336;BMP180;69435;52.670;13.544;2024-03-23T11:23:40;99770.00;;;10.10
21336;BMP180;69435;52.670;13.544;2024-03-23T11:26:26;99776.00;;;10.20
21336;BMP180;69435;52.670;13.544;2024-03-23T11:29:15;99776.00;;;10.30
21336;BMP180;69435;52.670;13.544;2024-03-23T11:32:02;99765.00;;;10.30
21336;BMP180;69435;52.670;13.544;2024-03-23T11:34:50;99754.00;;;10.30
21336;BMP180;69435;52.670;13.544;2024-03-23T11:37:37;99766.00;;;10.30
21336;BMP180;69435;52.670;13.544;2024-03-23T11:40:23;99760.00;;;10.30
21336;BMP180;69435;52.670;13.544;2024-03-23T11:43:17;99770.00;;;10.40
21336;BMP180;69435;52.670;13.544;2024-03-23T11:46:03;99779.00;;;10.40
21336;BMP180;69435;52.670;13.544;2024-03-23T11:48:50;99772.00;;;10.40
21336;BMP180;69435;52.670;13.544;2024-03-23T11:51:37;99780.00;;;10.50
21336;BMP180;69435;52.670;13.544;2024-03-23T11:54:25;99783.00;;;10.60
21336;BMP180;69435;52.670;13.544;2024-03-23T11:57:11;99779.00;;;10.60
21336;BMP180;69435;52.670;13.544;2024-03-23T11:59:57;99784.00;;;10.80
21336;BMP180;69435;52.670;13.544;2024-03-23T12:02:43;99798.00;;;10.90
21336;BMP180;69435;52.670;13.544;2024-03-23T12:05:31;99790.00;;;10.90
21336;BMP180;69435;52.670;13.544;2024-03-23T12:08:24;99788.00;;;11.10
21336;BMP180;69435;52.670;13.544;2024-03-23T12:11:12;99776.00;;;11.20
21336;BMP180;69435;52.670;13.544;2024-03-23T12:13:59;99783.00;;;11.20
21336;BMP180;69435;52.670;13.544;2024-03-23T12:16:45;99778.00;;;11.30
21336;BMP180;69435;52.670;13.544;2024-03-23T12:19:31;99782.00;;;11.30
21336;BMP180;69435;52.670;13.544;2024-03-23T12:22:21;99771.00;;;11.40
21336;BMP180;69435;52.670;13.544;2024-03-23T12:25:07;99781.00;;;11.50
21336;BMP180;69435;52.670;13.544;2024-03-23T12:27:53;99781.00;;;11.50
21336;BMP180;69435;52.670;13.544;2024-03-23T12:30:40;99787.00;;;11.60
21336;BMP180;69435;52.670;13.544;2024-03-23T12:33:26;99786.00;;;11.60
21336;BMP180;69435;52.670;13.544;2024-03-23T12:36:12;99771.00;;;11.60
21336;BMP180;69435;52.670;13.544;2024-03-23T12:38:58;99767.00;;;11.70
21336;BMP180;69435;52.670;13.544;2024-03-23T12:41:44;99758.00;;;11.80
21336;BMP180;69435;52.670;13.544;2024-03-23T12:44:30;99760.00;;;11.90
21336;BMP180;69435;52.670;13.544;2024-03-23T12:47:16;99755.00;;;11.90
21336;BMP180;69435;52.670;13.544;2024-03-23T12:50:02;99756.00;;;11.90
21336;BMP180;69435;52.670;13.544;2024-03-23T12:52:49;99762.00;;;11.90
21336;BMP180;69435;52.670;13.544;2024-03-23T12:55:35;99754.00;;;11.90
21336;BMP180;69435;52.670;13.544;2024-03-23T12:58:21;99750.00;;;12.00
21336;BMP180;69435;52.670;13.544;2024-03-23T13:01:07;99751.00;;;12.00
21336;BMP180;69435;52.670;13.544;2024-03-23T13:03:53;99763.00;;;12.10
21336;BMP180;69435;52.670;13.544;2024-03-23T13:06:39;99750.00;;;12.30
21336;BMP180;69435;52.670;13.544;2024-03-23T13:09:25;99759.00;;;12.40
21336;BMP180;69435;52.670;13.544;2024-03-23T13:12:11;99753.00;;;12.30
21336;BMP180;69435;52.670;13.544;2024-03-23T13:14:58;99749.00;;;12.30
21336;BMP180;69435;52.670;13.544;2024-03-23T13:17:44;99750.00;;;12.40
21336;BMP180;69435;52.670;13.544;2024-03-23T13:20:30;99751.00;;;12.50
21336;BMP180;69435;52.670;13.544;2024-03-23T13:23:16;99754.00;;;12.50
21336;BMP180;69435;52.670;13.544;2024-03-23T13:26:03;99750.00;;;12.60
21336;BMP180;69435;52.670;13.544;2024-03-23T13:28:49;99758.00;;;12.80
21336;BMP180;69435;52.670;13.544;2024-03-23T13:31:35;99752.00;;;12.80
21336;BMP180;69435;52.670;13.544;2024-03-23T13:34:21;99750.00;;;12.90
21336;BMP180;69435;52.670;13.544;2024-03-23T13:37:07;99758.00;;;12.90
21336;BMP180;69435;52.670;13.544;2024-03-23T13:39:53;99751.00;;;12.90
21336;BMP180;69435;52.670;13.544;2024-03-23T13:42:39;99753.00;;;12.90
21336;BMP180;69435;52.670;13.544;2024-03-23T13:45:25;99749.00;;;12.90
21336;BMP180;69435;52.670;13.544;2024-03-23T13:48:11;99754.00;;;12.90
21336;BMP180;69435;52.670;13.544;2024-03-23T13:51:04;99749.00;;;13.00
21336;BMP180;69435;52.670;13.544;2024-03-23T13:53:50;99760.00;;;13.10
21336;BMP180;69435;52.670;13.544;2024-03-23T13:56:36;99761.00;;;13.20
21336;BMP180;69435;52.670;13.544;2024-03-23T13:59:23;99752.00;;;13.30
21336;BMP180;69435;52.670;13.544;2024-03-23T14:02:09;99754.00;;;13.40
21336;BMP180;69435;52.670;13.544;2024-03-23T14:04:57;99751.00;;;13.50
21336;BMP180;69435;52.670;13.544;2024-03-23T14:07:43;99748.00;;;13.50
21336;BMP180;69435;52.670;13.544;2024-03-23T14:10:29;99766.00;;;13.60
21336;BMP180;69435;52.670;13.544;2024-03-23T14:13:15;99773.00;;;13.60
21336;BMP180;69435;52.670;13.544;2024-03-23T14:16:01;99812.00;;;13.20
21336;BMP180;69435;52.670;13.544;2024-03-23T14:18:47;99834.00;;;12.90
21336;BMP180;69435;52.670;13.544;2024-03-23T14:21:33;99809.00;;;12.30
21336;BMP180;69435;52.670;13.544;2024-03-23T14:24:22;99796.00;;;11.60
21336;BMP180;69435;52.670;13.544;2024-03-23T14:27:10;99809.00;;;11.00
21336;BMP180;69435;52.670;13.544;2024-03-23T14:29:56;99802.00;;;10.60
21336;BMP180;69435;52.670;13.544;2024-03-23T14:32:42;99824.00;;;10.30
21336;BMP180;69435;52.670;13.544;2024-03-23T14:35:28;99811.00;;;10.00
21336;BMP180;69435;52.670;13.544;2024-03-23T14:38:14;99829.00;;;9.80
21336;BMP180;69435;52.670;13.544;2024-03-23T14:41:00;99820.00;;;9.60
21336;BMP180;69435;52.670;13.544;2024-03-23T14:43:48;99833.00;;;9.40
21336;BMP180;69435;52.670;13.544;2024-03-23T14:46:35;99832.00;;;9.20
21336;BMP180;69435;52.670;13.544;2024-03-23T14:49:21;99837.00;;;9.10
21336;BMP180;69435;52.670;13.544;2024-03-23T14:52:07;99826.00;;;9.00
21336;BMP180;69435;52.670;13.544;2024-03-23T14:54:54;99818.00;;;8.80
21336;BMP180;69435;52.670;13.544;2024-03-23T14:57:42;99811.00;;;8.70
21336;BMP180;69435;52.670;13.544;2024-03-23T15:00:28;99795.00;;;8.70
21336;BMP180;69435;52.670;13.544;2024-03-23T15:03:14;99801.00;;;8.70
21336;BMP180;69435;52.670;13.544;2024-03-23T15:06:00;99807.00;;;8.80
21336;BMP180;69435;52.670;13.544;2024-03-23T15:08:47;99804.00;;;9.00
21336;BMP180;69435;52.670;13.544;2024-03-23T15:11:33;99817.00;;;9.10
21336;BMP180;69435;52.670;13.544;2024-03-23T15:14:19;99818.00;;;9.30
21336;BMP180;69435;52.670;13.544;2024-03-23T15:17:05;99832.00;;;9.40
21336;BMP180;69435;52.670;13.544;2024-03-23T15:19:53;99818.00;;;9.50
21336;BMP180;69435;52.670;13.544;2024-03-23T15:22:41;99813.00;;;9.60
21336;BMP180;69435;52.670;13.544;2024-03-23T15:25:28;99793.00;;;9.60
21336;BMP180;69435;52.670;13.544;2024-03-23T15:28:14;99791.00;;;9.70
21336;BMP180;69435;52.670;13.544;2024-03-23T15:31:00;99792.00;;;9.70
21336;BMP180;69435;52.670;13.544;2024-03-23T15:33:46;99786.00;;;9.60
21336;BMP180;69435;52.670;13.544;2024-03-23T15:36:32;99787.00;;;9.70
21336;BMP180;69435;52.670;13.544;2024-03-23T15:39:17;99782.00;;;9.60
21336;BMP180;69435;52.670;13.544;2024-03-23T15:42:04;99782.00;;;9.60
21336;BMP180;69435;52.670;13.544;2024-03-23T15:44:51;99789.00;;;9.70
21336;BMP180;69435;52.670;13.544;2024-03-23T15:47:39;99778.00;;;9.70
21336;BMP180;69435;52.670;13.544;2024-03-23T15:50:25;99779.00;;;9.80
21336;BMP180;69435;52.670;13.544;2024-03-23T15:53:12;99767.00;;;9.90
21336;BMP180;69435;52.670;13.544;2024-03-23T15:56:03;99770.00;;;9.90
21336;BMP180;69435;52.670;13.544;2024-03-23T15:58:49;99754.00;;;9.90
21336;BMP180;69435;52.670;13.544;2024-03-23T16:01:35;99757.00;;;9.80
21336;BMP180;69435;52.670;13.544;2024-03-23T16:04:21;99752.00;;;9.90
21336;BMP180;69435;52.670;13.544;2024-03-23T16:07:07;99742.00;;;9.90
21336;BMP180;69435;52.670;13.544;2024-03-23T16:09:53;99737.00;;;9.90
21336;BMP180;69435;52.670;13.544;2024-03-23T16:12:39;99742.00;;;9.90
21336;BMP180;69435;52.670;13.544;2024-03-23T16:15:26;99735.00;;;9.90
21336;BMP180;69435;52.670;13.544;2024-03-23T16:18:12;99734.00;;;9.90
21336;BMP180;69435;52.670;13.544;2024-03-23T16:21:08;99721.00;;;10.00
21336;BMP180;69435;52.670;13.544;2024-03-23T16:23:54;99720.00;;;10.00
21336;BMP180;69435;52.670;13.544;2024-03-23T16:26:40;99711.00;;;10.00
21336;BMP180;69435;52.670;13.544;2024-03-23T16:29:26;99718.00;;;10.00
21336;BMP180;69435;52.670;13.544;2024-03-23T16:32:12;99722.00;;;10.10
21336;BMP180;69435;52.670;13.544;2024-03-23T16:34:58;99720.00;;;10.10
21336;BMP180;69435;52.670;13.544;2024-03-23T16:37:46;99714.00;;;10.10
21336;BMP180;69435;52.670;13.544;2024-03-23T16:40:33;99723.00;;;10.10
21336;BMP180;69435;52.670;13.544;2024-03-23T16:43:20;99716.00;;;10.10